Melvin, IA

12:59 AM CST on November 27, 2014 (GMT -0600)
Sheldon Municipal | Change Station
CLOSE
Current Station
Airport
Location: Sheldon,
Elevation: 1417 ft
Nearby Weather Stations

Elev 1417 ft 43.21 °N, 95.84 °W | Updated 24 minutes ago

Clear
Clear
3 °F
Feels Like -9 °F
N
7
Wind Variable Wind from NNW

Today
High -- | Low -- °F
--% Chance of Precip.
Yesterday
High -- | Low -- °F
Precip. -- in
7:30 AM 4:49 PM
Waxing Crescent, 26% visible
Pressure 30.45 in
Visibility 10.0 miles
Clouds Clear
Windchill -9 °F
Dew Point -6 °F
Humidity 66%
Rainfall 0.00 in
Snow Depth Not available.
UV 0 out of 12
Pollen .10 out of 12
Air Quality Not available.
Flu Activity Not available.
METAR KSHL 270635Z AUTO 34006KT 10SM CLR M16/M21 A3045 RMK AO2

More Conditions Fewer Conditions

Pressure 30.45 in
Visibility 10.0 miles
Clouds Clear
Windchill -9 °F
Dew Point -6 °F
Humidity 66%
Rainfall 0.00 in
Snow Depth Not available.
UV 0 out of 12
Pollen .10 out of 12
Air Quality Not available.
Flu Activity Not available.
METAR KSHL 270635Z AUTO 34006KT 10SM CLR M16/M21 A3045 RMK AO2

More Conditions Fewer Conditions

10-Day Weather Forecast

Almanac

Astronomy

Nov. 27, 2014 Rise Set
Actual Time
Civil Twilight
Nautical Twilight
Astronomical Twilight
Moon
Length of Visible Light
Length of Day
Tomorrow will be .
, % of the Moon is Illuminated

Today's Extremes

State Highs State Lows

Community

WunderPhotos

Upload Photos

1,773,962 photos uploaded!

WunderBlogs® & News

Nearby

Air Quality

  Air Quality AQ Index Pollutant
Not available.

Snow Depth

Station Depth Elevation

Earthquake Activity

City Distance Mag. Time & Date
Minimum magnitude displayed is 2.5.

Coastal Water Temperatures

Place Temperature

Nearby Weather Stations